createdAt,value
2019-04-30T00:01:17.398Z,3.23
2019-04-30T00:03:50.631Z,3.60
2019-04-30T00:06:22.492Z,3.10
2019-04-30T00:08:52.419Z,3.27
2019-04-30T00:11:22.075Z,2.90
2019-04-30T00:13:55.281Z,2.80
2019-04-30T00:16:25.159Z,2.93
2019-04-30T00:19:00.439Z,3.67
2019-04-30T00:21:26.383Z,3.90
2019-04-30T00:23:56.266Z,2.80
2019-04-30T00:26:27.630Z,2.97
2019-04-30T00:28:57.409Z,2.67
2019-04-30T00:31:27.538Z,2.70
2019-04-30T00:34:01.245Z,2.80
2019-04-30T00:36:34.102Z,4.13
2019-04-30T00:39:01.465Z,2.90
2019-04-30T00:41:32.745Z,2.93
2019-04-30T00:44:02.481Z,3.30
2019-04-30T00:46:32.507Z,2.70
2019-04-30T00:49:09.270Z,2.90
2019-04-30T00:51:35.339Z,3.30
2019-04-30T00:54:05.739Z,3.30
2019-04-30T00:56:36.886Z,3.43
2019-04-30T00:59:10.446Z,3.60
2019-04-30T01:02:06.157Z,3.23
2019-04-30T01:04:46.161Z,3.10
2019-04-30T01:07:17.144Z,3.77
2019-04-30T01:09:49.827Z,3.43
2019-04-30T01:12:25.506Z,2.93
2019-04-30T01:14:50.219Z,3.70
2019-04-30T01:17:19.905Z,2.77
2019-04-30T01:19:51.228Z,3.00
2019-04-30T01:22:28.212Z,3.10
2019-04-30T01:24:53.160Z,2.80
2019-04-30T01:27:23.164Z,2.63
2019-04-30T01:29:53.054Z,3.07
2019-04-30T01:32:22.718Z,3.03
2019-04-30T01:34:54.055Z,3.20
2019-04-30T01:37:28.423Z,3.47
2019-04-30T01:39:55.480Z,3.00
2019-04-30T01:42:25.230Z,3.03
2019-04-30T01:44:56.028Z,2.30
2019-04-30T01:47:27.807Z,3.37
2019-04-30T01:50:01.092Z,2.90
2019-04-30T01:52:49.375Z,2.80
2019-04-30T01:55:20.694Z,2.73
2019-04-30T01:58:08.672Z,2.20
2019-04-30T02:00:49.303Z,3.30
2019-04-30T02:03:19.391Z,3.27
2019-04-30T02:05:50.185Z,2.90
2019-04-30T02:08:20.942Z,2.50
2019-04-30T02:10:51.375Z,3.10
2019-04-30T02:13:21.357Z,2.90
2019-04-30T02:15:51.064Z,2.47
2019-04-30T02:18:20.868Z,2.73
2019-04-30T02:20:50.611Z,3.20
2019-04-30T02:23:20.346Z,2.37
2019-04-30T02:25:50.044Z,2.80
2019-04-30T02:28:19.708Z,3.10
2019-04-30T02:30:50.384Z,3.00
2019-04-30T02:33:20.899Z,2.87
2019-04-30T02:36:03.682Z,3.53
2019-04-30T02:38:34.018Z,2.83
2019-04-30T02:41:03.865Z,2.97
2019-04-30T02:43:35.042Z,2.50
2019-04-30T02:46:05.643Z,2.97
2019-04-30T02:48:39.659Z,2.83
2019-04-30T02:51:12.438Z,2.60
2019-04-30T02:54:12.349Z,3.40
2019-04-30T02:56:44.407Z,3.10
2019-04-30T02:59:14.162Z,2.83
2019-04-30T03:01:43.862Z,2.50
2019-04-30T03:04:13.759Z,3.40
2019-04-30T03:06:43.512Z,3.03
2019-04-30T03:09:13.242Z,2.80
2019-04-30T03:11:42.974Z,2.63
2019-04-30T03:14:12.639Z,2.83
2019-04-30T03:17:10.009Z,3.17
2019-04-30T03:19:50.220Z,3.40
2019-04-30T03:22:23.273Z,3.03
2019-04-30T03:24:52.949Z,3.07
2019-04-30T03:27:24.812Z,2.83
2019-04-30T03:29:53.994Z,2.40
2019-04-30T03:32:23.701Z,2.90
2019-04-30T03:34:53.499Z,2.57
2019-04-30T03:37:23.245Z,2.57
2019-04-30T03:39:53.015Z,2.60
2019-04-30T03:42:22.762Z,2.87
2019-04-30T03:44:52.459Z,3.20
2019-04-30T03:47:22.185Z,2.83
2019-04-30T03:49:52.101Z,2.50
2019-04-30T03:52:21.985Z,2.77
2019-04-30T03:54:52.675Z,2.70
2019-04-30T03:57:22.436Z,2.80
2019-04-30T03:59:52.171Z,2.30
2019-04-30T04:02:40.586Z,2.60
2019-04-30T04:05:16.363Z,2.90
2019-04-30T04:08:09.620Z,2.90
2019-04-30T04:10:52.705Z,3.27
2019-04-30T04:13:21.268Z,3.10
2019-04-30T04:15:51.037Z,3.00
2019-04-30T04:18:20.997Z,3.00
2019-04-30T04:21:06.618Z,3.10
2019-04-30T04:23:22.120Z,3.10
2019-04-30T04:25:51.812Z,3.13
2019-04-30T04:28:21.972Z,2.97
2019-04-30T04:30:51.724Z,3.63
2019-04-30T04:33:21.395Z,3.20
2019-04-30T04:35:51.082Z,3.27
2019-04-30T04:38:20.809Z,3.37
2019-04-30T04:40:50.527Z,3.20
2019-04-30T04:43:20.463Z,2.93
2019-04-30T04:45:50.325Z,3.30
2019-04-30T04:48:23.208Z,3.53
2019-04-30T04:50:51.523Z,2.80
2019-04-30T04:53:21.349Z,3.17
2019-04-30T04:55:51.048Z,3.10
2019-04-30T04:58:21.490Z,2.60
2019-04-30T05:00:51.692Z,3.23
2019-04-30T05:03:31.754Z,2.80
2019-04-30T05:06:02.617Z,2.70
2019-04-30T05:08:32.751Z,2.70
2019-04-30T05:11:02.450Z,3.00
2019-04-30T05:13:34.626Z,2.93
2019-04-30T05:16:03.958Z,3.10
2019-04-30T05:18:34.780Z,3.10
2019-04-30T05:21:04.548Z,2.83
2019-04-30T05:23:34.338Z,2.90
2019-04-30T05:26:04.136Z,3.20
2019-04-30T05:28:33.913Z,3.33
2019-04-30T05:31:03.650Z,2.60
2019-04-30T05:33:33.638Z,2.80
2019-04-30T05:36:03.331Z,3.67
2019-04-30T05:38:33.069Z,2.80
2019-04-30T05:41:02.783Z,3.30
2019-04-30T05:43:32.579Z,3.03
2019-04-30T05:46:02.417Z,2.97
2019-04-30T05:48:32.194Z,2.73
2019-04-30T05:51:02.025Z,2.97
2019-04-30T05:53:31.756Z,2.50
2019-04-30T05:56:03.239Z,2.60
2019-04-30T05:58:34.168Z,3.17
2019-04-30T06:01:03.984Z,3.07
2019-04-30T06:03:33.682Z,3.63
2019-04-30T06:06:03.572Z,3.10
2019-04-30T06:08:43.105Z,2.60
2019-04-30T06:11:19.776Z,3.17
2019-04-30T06:14:18.606Z,3.50
2019-04-30T06:17:05.292Z,2.90
2019-04-30T06:19:35.216Z,4.00
2019-04-30T06:22:08.090Z,3.10
2019-04-30T06:24:37.090Z,3.10
2019-04-30T06:27:10.560Z,2.73
2019-04-30T06:29:39.089Z,2.73
2019-04-30T06:32:09.448Z,3.43
2019-04-30T06:34:41.921Z,4.23
2019-04-30T06:37:11.665Z,3.17
2019-04-30T06:39:41.477Z,2.67
2019-04-30T06:42:12.979Z,2.57
2019-04-30T06:44:44.136Z,4.00
2019-04-30T06:47:14.280Z,2.53
2019-04-30T06:49:44.316Z,2.90
2019-04-30T06:52:20.532Z,2.83
2019-04-30T06:54:45.532Z,3.37
2019-04-30T06:57:15.251Z,2.60
2019-04-30T06:59:44.938Z,2.87
2019-04-30T07:02:14.640Z,2.83
2019-04-30T07:04:44.440Z,2.77
2019-04-30T07:07:14.472Z,2.50
2019-04-30T07:10:01.189Z,2.60
2019-04-30T07:12:38.874Z,2.90
2019-04-30T07:15:08.822Z,2.80
2019-04-30T07:17:40.572Z,2.50
2019-04-30T07:20:10.506Z,3.00
2019-04-30T07:22:48.901Z,2.60
2019-04-30T07:25:12.054Z,3.13
2019-04-30T07:27:42.073Z,2.57
2019-04-30T07:30:11.987Z,2.63
2019-04-30T07:32:41.687Z,2.90
2019-04-30T07:35:11.563Z,2.33
2019-04-30T07:37:41.290Z,2.40
2019-04-30T07:40:12.505Z,2.40
2019-04-30T07:42:44.902Z,2.90
2019-04-30T07:45:13.755Z,2.93
2019-04-30T07:47:43.417Z,2.40
2019-04-30T07:50:13.969Z,2.23
2019-04-30T07:53:01.085Z,2.50
2019-04-30T07:55:15.381Z,2.50
2019-04-30T07:57:45.067Z,2.83
2019-04-30T08:00:14.891Z,3.00
2019-04-30T08:02:52.694Z,2.73
2019-04-30T08:05:29.904Z,2.40
2019-04-30T08:08:16.221Z,2.53
2019-04-30T08:10:31.767Z,3.00
2019-04-30T08:13:10.180Z,2.60
2019-04-30T08:15:33.047Z,3.00
2019-04-30T08:18:05.837Z,3.00
2019-04-30T08:20:34.231Z,2.50
2019-04-30T08:23:15.616Z,3.07
2019-04-30T08:25:35.553Z,2.30
2019-04-30T08:28:05.496Z,2.40
2019-04-30T08:30:35.234Z,2.80
2019-04-30T08:33:05.066Z,2.60
2019-04-30T08:35:34.852Z,2.60
2019-04-30T08:38:04.848Z,3.27
2019-04-30T08:40:34.843Z,2.47
2019-04-30T08:43:04.870Z,2.40
2019-04-30T08:45:34.850Z,2.33
2019-04-30T08:48:05.024Z,2.37
2019-04-30T08:50:34.783Z,2.40
2019-04-30T08:53:04.825Z,2.23
2019-04-30T08:55:34.868Z,1.67
2019-04-30T08:58:09.859Z,2.20
2019-04-30T09:00:36.280Z,1.90
2019-04-30T09:03:06.253Z,2.17
2019-04-30T09:06:01.560Z,2.33
2019-04-30T09:08:31.376Z,2.00
2019-04-30T09:11:01.198Z,1.90
2019-04-30T09:13:30.993Z,2.43
2019-04-30T09:16:00.694Z,2.13
2019-04-30T09:18:31.996Z,2.03
2019-04-30T09:21:05.956Z,1.60
2019-04-30T09:23:43.909Z,2.50
2019-04-30T09:26:04.742Z,1.90
2019-04-30T09:28:34.478Z,2.30
2019-04-30T09:31:05.916Z,1.70
2019-04-30T09:33:35.800Z,2.20
2019-04-30T09:36:05.664Z,2.63
2019-04-30T09:38:35.371Z,2.03
2019-04-30T09:41:05.192Z,2.00
2019-04-30T09:43:34.890Z,1.83
2019-04-30T09:46:15.216Z,1.77
2019-04-30T09:48:38.492Z,2.13
2019-04-30T09:51:10.225Z,2.40
2019-04-30T09:53:39.966Z,3.70
2019-04-30T09:56:10.196Z,2.07
2019-04-30T09:58:40.045Z,2.53
2019-04-30T10:01:09.735Z,2.50
2019-04-30T10:03:40.138Z,2.00
2019-04-30T10:06:11.954Z,1.77
2019-04-30T10:08:48.365Z,2.37
2019-04-30T10:11:23.443Z,2.20
2019-04-30T10:13:52.944Z,2.60
2019-04-30T10:16:44.896Z,4.80
2019-04-30T10:19:15.035Z,1.80
2019-04-30T10:21:44.955Z,2.43
2019-04-30T10:24:15.783Z,2.37
2019-04-30T10:26:45.870Z,2.40
2019-04-30T10:29:17.316Z,2.67
2019-04-30T10:31:48.938Z,2.13
2019-04-30T10:34:19.032Z,2.17
2019-04-30T10:36:49.529Z,2.43
2019-04-30T10:39:21.705Z,2.70
2019-04-30T10:41:51.126Z,3.40
2019-04-30T10:44:21.995Z,2.03
2019-04-30T10:46:51.813Z,2.40
2019-04-30T10:49:21.592Z,2.30
2019-04-30T10:51:51.429Z,2.10
2019-04-30T10:54:26.041Z,2.30
2019-04-30T10:56:52.760Z,2.27
2019-04-30T10:59:22.635Z,2.20
2019-04-30T11:01:52.396Z,2.03
2019-04-30T11:04:22.305Z,2.27
2019-04-30T11:06:52.035Z,1.97
2019-04-30T11:09:22.207Z,2.20
2019-04-30T11:11:52.033Z,2.53
2019-04-30T11:14:21.884Z,2.27
2019-04-30T11:16:52.116Z,2.77
2019-04-30T11:19:24.548Z,1.93
2019-04-30T11:21:54.818Z,2.30
2019-04-30T11:24:35.889Z,2.10
2019-04-30T11:26:59.880Z,2.40
2019-04-30T11:29:30.790Z,2.03
2019-04-30T11:32:21.322Z,2.23
2019-04-30T11:34:51.313Z,2.10
2019-04-30T11:37:22.205Z,2.23
2019-04-30T11:39:51.986Z,2.30
2019-04-30T11:42:21.713Z,2.10
2019-04-30T11:44:51.422Z,2.80
2019-04-30T11:47:26.639Z,3.27
2019-04-30T11:49:56.439Z,2.67
2019-04-30T11:52:26.303Z,2.13
2019-04-30T11:54:56.203Z,2.43
2019-04-30T11:57:26.351Z,2.43
2019-04-30T11:59:56.213Z,3.10
2019-04-30T12:02:36.663Z,4.10
2019-04-30T12:05:07.557Z,2.57
2019-04-30T12:08:05.459Z,2.43
2019-04-30T12:10:43.302Z,2.40
2019-04-30T12:13:44.267Z,1.80
2019-04-30T12:16:14.074Z,2.10
2019-04-30T12:18:43.806Z,2.27
2019-04-30T12:21:13.508Z,2.40
2019-04-30T12:23:43.181Z,2.23
2019-04-30T12:26:12.831Z,2.40
2019-04-30T12:28:42.507Z,2.03
2019-04-30T12:31:12.226Z,2.17
2019-04-30T12:33:41.900Z,2.03
2019-04-30T12:36:11.729Z,2.23
2019-04-30T12:38:43.775Z,2.17
2019-04-30T12:41:13.560Z,2.10
2019-04-30T12:43:43.298Z,2.60
2019-04-30T12:46:13.120Z,2.33
2019-04-30T12:49:00.982Z,2.00
2019-04-30T12:51:52.871Z,2.40
2019-04-30T12:54:28.434Z,2.53
2019-04-30T12:57:19.233Z,3.33
2019-04-30T12:59:49.023Z,2.07
2019-04-30T13:02:19.192Z,2.30
2019-04-30T13:04:49.406Z,2.00
2019-04-30T13:07:20.642Z,2.50
2019-04-30T13:09:51.059Z,3.27
2019-04-30T13:12:21.652Z,3.23
2019-04-30T13:14:54.663Z,2.47
2019-04-30T13:17:23.164Z,2.03
2019-04-30T13:19:52.926Z,2.50
2019-04-30T13:22:22.604Z,2.60
2019-04-30T13:24:52.373Z,2.20
2019-04-30T13:27:22.657Z,1.93
2019-04-30T13:30:08.189Z,2.30
2019-04-30T13:32:44.346Z,2.33
2019-04-30T13:35:14.232Z,2.23
2019-04-30T13:37:50.068Z,1.80
2019-04-30T13:40:36.354Z,2.00
2019-04-30T13:43:06.673Z,1.97
2019-04-30T13:45:36.462Z,1.77
2019-04-30T13:48:10.288Z,2.30
2019-04-30T13:50:41.667Z,2.00
2019-04-30T13:53:11.402Z,1.77
2019-04-30T13:55:45.485Z,2.10
2019-04-30T13:58:12.480Z,2.40
2019-04-30T14:00:42.313Z,2.47
2019-04-30T14:03:34.221Z,2.30
2019-04-30T14:06:05.890Z,2.20
2019-04-30T14:08:40.512Z,2.30
2019-04-30T14:11:10.354Z,2.50
2019-04-30T14:13:41.082Z,2.23
2019-04-30T14:16:10.855Z,2.40
2019-04-30T14:18:40.971Z,3.20
2019-04-30T14:21:11.003Z,2.50
2019-04-30T14:23:40.847Z,2.30
2019-04-30T14:26:10.621Z,2.17
2019-04-30T14:28:40.483Z,2.40
2019-04-30T14:31:10.407Z,2.30
2019-04-30T14:33:40.222Z,2.07
2019-04-30T14:36:10.043Z,2.40
2019-04-30T14:38:40.683Z,2.67
2019-04-30T14:41:11.361Z,2.73
2019-04-30T14:43:51.009Z,2.80
2019-04-30T14:46:40.031Z,2.30
2019-04-30T14:49:34.823Z,1.87
2019-04-30T14:52:05.280Z,2.20
2019-04-30T14:54:52.945Z,2.20
2019-04-30T14:57:42.785Z,2.23
2019-04-30T15:00:40.919Z,2.17
2019-04-30T15:03:13.068Z,2.53
2019-04-30T15:05:48.644Z,2.23
2019-04-30T15:08:14.187Z,2.23
2019-04-30T15:10:44.133Z,2.50
2019-04-30T15:13:13.955Z,2.23
2019-04-30T15:15:43.989Z,2.60
2019-04-30T15:18:13.707Z,2.67
2019-04-30T15:20:43.520Z,2.90
2019-04-30T15:23:21.855Z,2.40
2019-04-30T15:25:51.813Z,2.27
2019-04-30T15:28:21.579Z,2.13
2019-04-30T15:30:51.965Z,2.40
2019-04-30T15:33:30.145Z,2.90
2019-04-30T15:35:59.998Z,2.50
2019-04-30T15:38:49.023Z,2.20
2019-04-30T15:41:19.476Z,2.00
2019-04-30T15:43:50.203Z,2.50
2019-04-30T15:46:20.133Z,2.47
2019-04-30T15:48:49.905Z,2.07
2019-04-30T15:51:20.193Z,2.07
2019-04-30T15:53:49.900Z,2.83
2019-04-30T15:56:19.855Z,2.23
2019-04-30T15:59:10.387Z,2.13
2019-04-30T16:01:40.843Z,2.37
2019-04-30T16:04:11.995Z,2.50
2019-04-30T16:06:41.871Z,1.80
2019-04-30T16:09:16.026Z,2.30
2019-04-30T16:11:55.568Z,2.93
2019-04-30T16:14:29.508Z,2.03
2019-04-30T16:17:03.934Z,1.63
2019-04-30T16:19:33.761Z,2.20
2019-04-30T16:22:03.770Z,2.00
2019-04-30T16:24:33.724Z,2.50
2019-04-30T16:27:03.521Z,2.70
2019-04-30T16:29:34.521Z,2.33
2019-04-30T16:32:04.564Z,2.07
2019-04-30T16:34:35.322Z,3.00
2019-04-30T16:37:05.292Z,1.90
2019-04-30T16:39:35.064Z,3.53
2019-04-30T16:42:05.049Z,3.87
2019-04-30T16:44:34.852Z,2.00
2019-04-30T16:47:13.769Z,2.30
2019-04-30T16:49:36.603Z,2.23
2019-04-30T16:52:06.498Z,1.80
2019-04-30T16:54:36.254Z,2.23
2019-04-30T16:57:06.789Z,1.80
2019-04-30T16:59:40.863Z,4.83
2019-04-30T17:02:11.764Z,2.40
2019-04-30T17:04:53.085Z,4.47
2019-04-30T17:07:42.137Z,2.20
2019-04-30T17:10:18.863Z,2.17
2019-04-30T17:13:01.795Z,2.20
2019-04-30T17:15:32.019Z,2.30
2019-04-30T17:18:01.735Z,2.50
2019-04-30T17:20:31.591Z,2.10
2019-04-30T17:23:01.254Z,2.90
2019-04-30T17:25:32.131Z,2.30
2019-04-30T17:28:01.989Z,2.40
2019-04-30T17:30:33.538Z,2.70
2019-04-30T17:33:03.381Z,4.73
2019-04-30T17:35:33.257Z,2.10
2019-04-30T17:38:03.186Z,2.20
2019-04-30T17:40:32.937Z,3.20
2019-04-30T17:43:04.775Z,2.00
2019-04-30T17:45:35.131Z,2.70
2019-04-30T17:48:05.091Z,2.50
2019-04-30T17:50:36.001Z,2.83
2019-04-30T17:53:05.987Z,1.93
2019-04-30T17:55:35.719Z,2.00
2019-04-30T17:58:05.562Z,2.83
2019-04-30T18:00:38.907Z,3.47
2019-04-30T18:03:08.803Z,2.33
2019-04-30T18:05:40.272Z,2.80
2019-04-30T18:08:10.271Z,3.07
2019-04-30T18:10:40.591Z,2.73
2019-04-30T18:13:11.372Z,2.97
2019-04-30T18:15:41.165Z,2.80
2019-04-30T18:18:19.078Z,3.20
2019-04-30T18:20:59.354Z,4.90
2019-04-30T18:24:11.332Z,2.90
2019-04-30T18:26:48.012Z,3.23
2019-04-30T18:29:18.853Z,3.00
2019-04-30T18:31:48.659Z,3.67
2019-04-30T18:34:19.440Z,3.27
2019-04-30T18:36:51.251Z,7.13
2019-04-30T18:39:20.945Z,4.03
2019-04-30T18:41:50.685Z,4.43
2019-04-30T18:44:20.383Z,10.07
2019-04-30T18:46:50.117Z,3.80
2019-04-30T18:49:20.580Z,3.37
2019-04-30T18:51:50.323Z,6.83
2019-04-30T18:54:20.982Z,4.90
2019-04-30T18:56:50.871Z,3.40
2019-04-30T18:59:20.578Z,3.37
2019-04-30T19:01:50.446Z,3.90
2019-04-30T19:04:20.271Z,4.00
2019-04-30T19:06:53.144Z,4.23
2019-04-30T19:09:54.297Z,4.70
2019-04-30T19:12:48.916Z,5.50
2019-04-30T19:16:18.563Z,4.80
2019-04-30T19:18:42.334Z,4.10
2019-04-30T19:21:12.128Z,3.37
2019-04-30T19:23:41.835Z,4.47
2019-04-30T19:26:11.543Z,4.30
2019-04-30T19:28:44.072Z,5.10
2019-04-30T19:31:14.698Z,4.20
2019-04-30T19:33:44.421Z,5.50
2019-04-30T19:36:14.356Z,5.07
2019-04-30T19:38:52.541Z,4.20
2019-04-30T19:41:22.561Z,4.33
2019-04-30T19:43:52.421Z,4.10
2019-04-30T19:46:22.232Z,5.20
2019-04-30T19:48:51.929Z,4.70
2019-04-30T19:51:41.091Z,4.70
2019-04-30T19:54:11.347Z,9.23
2019-04-30T19:56:41.352Z,4.87
2019-04-30T19:59:11.213Z,5.40
2019-04-30T20:01:41.049Z,5.27
2019-04-30T20:04:11.079Z,4.13
2019-04-30T20:06:40.843Z,4.13
2019-04-30T20:09:13.122Z,4.67
2019-04-30T20:11:43.280Z,4.07
2019-04-30T20:14:13.194Z,4.87
2019-04-30T20:16:42.907Z,6.03
2019-04-30T20:19:12.792Z,5.07
2019-04-30T20:21:48.673Z,4.30
2019-04-30T20:24:14.148Z,5.37
2019-04-30T20:26:43.841Z,4.90
2019-04-30T20:29:13.640Z,5.13
2019-04-30T20:31:43.559Z,5.57
2019-04-30T20:34:13.357Z,4.47
2019-04-30T20:36:43.090Z,7.10
2019-04-30T20:39:18.889Z,5.07
2019-04-30T20:41:53.049Z,4.97
2019-04-30T20:44:23.962Z,4.83
2019-04-30T20:46:53.701Z,6.20
2019-04-30T20:49:23.426Z,5.20
2019-04-30T20:51:55.897Z,6.97
2019-04-30T20:54:24.853Z,6.97
2019-04-30T20:56:54.598Z,7.37
2019-04-30T20:59:24.327Z,6.13
2019-04-30T21:01:54.235Z,6.40
2019-04-30T21:04:24.091Z,7.10
2019-04-30T21:06:53.797Z,7.10
2019-04-30T21:09:23.500Z,6.83
2019-04-30T21:11:53.300Z,6.50
2019-04-30T21:14:23.052Z,6.90
2019-04-30T21:16:52.950Z,6.80
2019-04-30T21:19:22.671Z,6.90
2019-04-30T21:21:52.404Z,6.93
2019-04-30T21:24:22.137Z,5.13
2019-04-30T21:26:51.825Z,6.30
2019-04-30T21:29:21.551Z,6.50
2019-04-30T21:32:10.344Z,5.77
2019-04-30T21:34:59.560Z,7.60
2019-04-30T21:37:29.395Z,6.20
2019-04-30T21:39:59.162Z,8.13
2019-04-30T21:42:28.939Z,8.33
2019-04-30T21:44:58.952Z,7.70
2019-04-30T21:47:28.738Z,8.27
2019-04-30T21:49:58.478Z,9.00
2019-04-30T21:52:28.454Z,9.00
2019-04-30T21:54:59.596Z,9.00
2019-04-30T21:57:31.203Z,8.37
2019-04-30T22:00:01.180Z,7.93
2019-04-30T22:02:33.000Z,7.17
2019-04-30T22:05:02.834Z,8.03
2019-04-30T22:07:32.760Z,7.60
2019-04-30T22:10:02.930Z,7.60
2019-04-30T22:12:32.841Z,8.40
2019-04-30T22:15:05.742Z,7.70
2019-04-30T22:17:42.370Z,6.47
2019-04-30T22:20:13.195Z,5.83
2019-04-30T22:22:43.087Z,8.27
2019-04-30T22:25:13.500Z,6.30
2019-04-30T22:27:43.418Z,5.47
2019-04-30T22:30:16.625Z,7.67
2019-04-30T22:32:51.017Z,8.43
2019-04-30T22:35:39.089Z,5.87
2019-04-30T22:38:15.783Z,6.60
2019-04-30T22:40:51.252Z,6.10
2019-04-30T22:43:24.475Z,7.13
2019-04-30T22:46:07.231Z,6.13
2019-04-30T22:48:39.373Z,6.63
2019-04-30T22:51:09.317Z,7.00
2019-04-30T22:53:39.391Z,7.40
2019-04-30T22:56:09.294Z,8.20
2019-04-30T22:58:41.893Z,6.47
2019-04-30T23:01:34.481Z,11.33
2019-04-30T23:04:07.732Z,6.60
2019-04-30T23:06:38.266Z,6.83
2019-04-30T23:09:11.139Z,6.00
2019-04-30T23:11:40.965Z,6.30
2019-04-30T23:14:10.850Z,6.57
2019-04-30T23:16:40.733Z,6.00
2019-04-30T23:19:10.577Z,5.20
2019-04-30T23:21:40.332Z,5.57
2019-04-30T23:24:10.229Z,5.33
2019-04-30T23:26:39.982Z,5.70
2019-04-30T23:29:09.959Z,6.13
2019-04-30T23:31:39.670Z,6.60
2019-04-30T23:34:17.742Z,9.20
2019-04-30T23:36:41.457Z,7.60
2019-04-30T23:39:13.520Z,7.53
2019-04-30T23:41:43.427Z,7.97
2019-04-30T23:44:13.241Z,7.80
2019-04-30T23:46:43.072Z,7.20
2019-04-30T23:49:12.844Z,6.97
2019-04-30T23:51:42.649Z,6.37
2019-04-30T23:54:12.387Z,7.47
2019-04-30T23:56:42.347Z,6.80
2019-04-30T23:59:12.257Z,6.00
